Nagano, Japan
Current Conditions -  °F | °C
As of 1:00 PM on Friday 21 Nov 2014 (Local Time) from RJNT Reporting Station
Few Clouds Few Clouds  
Wind Chill: 63°   Ceiling: Unl
Heat Index: 63°   Visibility: 6mi
Dew Point: 32°   Wind: 5mph
Humidity: 32%   Direction: 330°NNW
Pressure: 30.21"   Gusts: NA
Location:  36.65°N, 138.18°E
Report Text: RJNT 210400Z 33004KT 280V040 9999 FEW040 17/M00 Q1023
Loading
Personal Weather Stations






























Interactive Weather Map New forecast layout! Learn more

10-Day Weather Forecast

Advertisements
Track Severe Weather on mobile